Time;durP1;ratioP1;P1;durP2;ratioP2;P2;SDS_P1;SDS_P2;PMS_P1;PMS_P2;Temp;Humidity;BMP_temperature;BMP_pressure;BME280_temperature;BME280_humidity;BME280_pressure;Samples;Min_cycle;Max_cycle;Signal;HPM_P1;HPM_P2
2023/12/11 00:00:02;;;;;;;81.18;45.38;;;;;;;;;;5011881;28;20096;-87
2023/12/11 00:02:28;;;;;;;66.00;40.53;;;;;;;;;;5012251;28;20025;-87
2023/12/11 00:04:53;;;;;;;64.65;39.78;;;;;;;;;;5014937;28;20017;-87
2023/12/11 00:07:18;;;;;;;80.05;42.78;;;;;;;;;;5028716;28;20387;-87
2023/12/11 00:09:43;;;;;;;70.70;40.15;;;;;;;;;;5026674;28;20029;-87
2023/12/11 00:12:09;;;;;;;54.70;33.35;;;;;;;;;;5012279;28;20167;-87
2023/12/11 00:14:34;;;;;;;50.10;34.75;;;;;;;;;;5011989;28;20032;-88
2023/12/11 00:16:59;;;;;;;61.47;37.88;;;;;;;;;;5011723;28;20414;-88
2023/12/11 00:19:25;;;;;;;66.75;36.75;;;;;;;;;;5012176;28;20045;-88
2023/12/11 00:21:51;;;;;;;56.88;34.00;;;;;;;;;;5029647;28;20021;-87
2023/12/11 00:24:16;;;;;;;59.10;34.40;;;;;;;;;;5011554;28;20026;-86
2023/12/11 00:26:41;;;;;;;59.40;31.63;;;;;;;;;;5022082;28;20116;-87
2023/12/11 00:29:08;;;;;;;58.45;34.78;;;;;;;;;;5029396;28;20137;-87
2023/12/11 00:31:33;;;;;;;57.83;38.38;;;;;;;;;;5029434;28;20112;-87
2023/12/11 00:33:58;;;;;;;58.50;33.83;;;;;;;;;;5011483;28;20025;-87
2023/12/11 00:36:24;;;;;;;56.35;34.60;;;;;;;;;;5017464;28;20041;-87
2023/12/11 00:38:49;;;;;;;43.03;27.45;;;;;;;;;;5028063;28;20022;-88
2023/12/11 00:41:15;;;;;;;49.72;31.33;;;;;;;;;;5029004;28;20040;-87
2023/12/11 00:43:41;;;;;;;54.45;35.70;;;;;;;;;;5011147;28;20029;-87
2023/12/11 00:46:06;;;;;;;58.85;37.03;;;;;;;;;;5011086;28;20029;-87
2023/12/11 00:48:31;;;;;;;77.45;43.65;;;;;;;;;;5012936;28;20037;-87
2023/12/11 00:50:57;;;;;;;71.20;40.00;;;;;;;;;;5014059;28;20025;-88
2023/12/11 00:53:22;;;;;;;48.63;31.10;;;;;;;;;;5028988;28;20029;-87
2023/12/11 00:55:47;;;;;;;60.10;34.45;;;;;;;;;;5030258;28;20053;-87
2023/12/11 00:58:12;;;;;;;58.65;34.75;;;;;;;;;;5013575;28;20053;-87
2023/12/11 01:00:38;;;;;;;52.72;33.22;;;;;;;;;;5014432;28;20032;-88
2023/12/11 01:03:03;;;;;;;53.85;33.00;;;;;;;;;;5022821;28;20088;-88
2023/12/11 01:05:29;;;;;;;55.95;33.38;;;;;;;;;;5010574;28;20025;-87
2023/12/11 01:07:54;;;;;;;43.22;27.17;;;;;;;;;;5010905;28;20029;-87
2023/12/11 01:10:19;;;;;;;38.67;25.50;;;;;;;;;;5028557;28;20027;-87
2023/12/11 01:12:45;;;;;;;37.92;24.40;;;;;;;;;;5016497;28;20044;-87
2023/12/11 01:15:10;;;;;;;43.92;25.90;;;;;;;;;;5010592;28;20030;-87
2023/12/11 01:17:36;;;;;;;43.58;27.45;;;;;;;;;;5025075;28;20069;-87
2023/12/11 01:20:02;;;;;;;38.88;25.27;;;;;;;;;;5028305;28;20048;-88
2023/12/11 01:22:27;;;;;;;36.75;23.75;;;;;;;;;;5010618;28;20498;-87
2023/12/11 01:24:53;;;;;;;42.08;26.02;;;;;;;;;;5027916;28;20033;-87
2023/12/11 01:27:18;;;;;;;42.97;26.13;;;;;;;;;;5010358;28;20041;-87
2023/12/11 01:29:43;;;;;;;38.15;23.60;;;;;;;;;;5028387;28;20087;-87
2023/12/11 01:32:09;;;;;;;36.97;24.70;;;;;;;;;;5010433;28;20029;-87
2023/12/11 01:34:34;;;;;;;47.20;28.10;;;;;;;;;;5020938;28;20032;-87
2023/12/11 01:36:59;;;;;;;41.40;24.92;;;;;;;;;;5027746;28;20062;-88
2023/12/11 01:39:25;;;;;;;41.30;24.52;;;;;;;;;;5019101;28;20029;-87
2023/12/11 01:41:50;;;;;;;43.35;25.63;;;;;;;;;;5010011;28;20025;-87
2023/12/11 01:44:15;;;;;;;38.35;23.02;;;;;;;;;;5010366;28;20104;-87
2023/12/11 01:46:41;;;;;;;39.88;24.50;;;;;;;;;;5010772;28;20028;-88
2023/12/11 01:49:06;;;;;;;34.63;22.95;;;;;;;;;;5027848;28;20025;-87
2023/12/11 01:51:32;;;;;;;29.98;21.35;;;;;;;;;;5028809;28;20021;-86
2023/12/11 01:53:57;;;;;;;30.17;20.77;;;;;;;;;;5032140;28;20028;-87
2023/12/11 01:56:23;;;;;;;31.70;20.95;;;;;;;;;;5010883;28;20459;-87
2023/12/11 01:58:48;;;;;;;30.80;19.63;;;;;;;;;;5010829;28;20463;-86
2023/12/11 02:01:14;;;;;;;35.40;20.52;;;;;;;;;;5025656;28;20032;-86
2023/12/11 02:03:40;;;;;;;29.88;18.17;;;;;;;;;;5027013;28;20028;-87
2023/12/11 02:06:05;;;;;;;30.70;20.77;;;;;;;;;;5015109;28;20029;-87
2023/12/11 02:08:32;;;;;;;34.40;20.80;;;;;;;;;;5028355;28;20022;-87
2023/12/11 02:10:57;;;;;;;31.73;21.25;;;;;;;;;;5021364;28;20087;-87
2023/12/11 02:13:23;;;;;;;35.55;22.08;;;;;;;;;;5009998;28;20438;-86
2023/12/11 02:15:50;;;;;;;46.53;24.77;;;;;;;;;;5028286;28;20030;-87
2023/12/11 02:18:18;;;;;;;49.67;27.42;;;;;;;;;;5028110;28;20022;-87
2023/12/11 02:20:44;;;;;;;37.40;23.00;;;;;;;;;;5028300;28;20033;-88
2023/12/11 02:23:13;;;;;;;38.92;23.73;;;;;;;;;;5027805;28;20025;-87
2023/12/11 02:25:39;;;;;;;339.60;93.87;;;;;;;;;;5014015;28;20029;-87
2023/12/11 02:28:05;;;;;;;75.20;32.25;;;;;;;;;;5027846;28;20046;-86
2023/12/11 02:30:33;;;;;;;39.17;23.85;;;;;;;;;;5027254;28;20078;-86
2023/12/11 02:32:58;;;;;;;39.67;23.67;;;;;;;;;;5028363;28;20021;-87
2023/12/11 02:35:24;;;;;;;40.17;25.70;;;;;;;;;;5009897;28;20029;-86
2023/12/11 02:37:49;;;;;;;92.05;48.67;;;;;;;;;;5010085;28;20040;-87
2023/12/11 02:40:14;;;;;;;73.75;39.80;;;;;;;;;;5010391;28;20017;-87
2023/12/11 02:42:45;;;;;;;44.50;28.25;;;;;;;;;;5028166;28;20036;-86
2023/12/11 02:45:10;;;;;;;46.03;28.73;;;;;;;;;;5010108;28;20029;-87
2023/12/11 02:47:36;;;;;;;35.58;22.98;;;;;;;;;;5027436;28;20059;-87
2023/12/11 02:50:01;;;;;;;40.95;24.85;;;;;;;;;;5028165;28;20033;-87
2023/12/11 02:52:26;;;;;;;62.45;35.60;;;;;;;;;;5010995;28;20034;-87
2023/12/11 02:54:52;;;;;;;55.85;32.35;;;;;;;;;;5013694;28;20021;-87
2023/12/11 02:57:17;;;;;;;62.50;35.78;;;;;;;;;;5019481;28;20029;-87
2023/12/11 02:59:42;;;;;;;31.33;21.20;;;;;;;;;;5031527;28;20018;-85
2023/12/11 03:02:07;;;;;;;28.55;18.17;;;;;;;;;;5031849;28;20022;-86
2023/12/11 03:04:33;;;;;;;27.05;18.95;;;;;;;;;;5031261;28;20494;-87
2023/12/11 03:06:58;;;;;;;29.63;18.42;;;;;;;;;;5031421;28;20021;-86
2023/12/11 03:09:23;;;;;;;30.52;20.38;;;;;;;;;;5019722;28;20130;-86
2023/12/11 03:11:49;;;;;;;34.03;22.95;;;;;;;;;;5031226;28;20111;-87
2023/12/11 03:14:14;;;;;;;27.95;19.02;;;;;;;;;;5013427;28;20037;-87
2023/12/11 03:16:39;;;;;;;28.38;19.17;;;;;;;;;;5014809;28;20032;-87
2023/12/11 03:19:05;;;;;;;27.50;19.77;;;;;;;;;;5013481;28;20041;-87
2023/12/11 03:21:30;;;;;;;26.95;17.80;;;;;;;;;;5031042;28;20018;-86
2023/12/11 03:23:55;;;;;;;30.45;19.48;;;;;;;;;;5012833;28;20289;-86
2023/12/11 03:26:20;;;;;;;29.55;19.10;;;;;;;;;;5013301;28;20441;-86
2023/12/11 03:28:46;;;;;;;33.33;21.90;;;;;;;;;;5030895;28;20123;-86
2023/12/11 03:31:11;;;;;;;35.97;21.85;;;;;;;;;;5013628;28;20081;-86
2023/12/11 03:33:36;;;;;;;31.38;20.17;;;;;;;;;;5030422;28;20033;-86
2023/12/11 03:36:02;;;;;;;28.25;20.17;;;;;;;;;;5012941;28;20490;-86
2023/12/11 03:38:27;;;;;;;30.55;21.08;;;;;;;;;;5016913;28;20032;-86
2023/12/11 03:40:52;;;;;;;26.95;18.85;;;;;;;;;;5030894;28;20028;-86
2023/12/11 03:43:18;;;;;;;28.52;19.15;;;;;;;;;;5013906;28;20083;-86
2023/12/11 03:45:43;;;;;;;25.13;16.50;;;;;;;;;;5012843;28;20112;-86
2023/12/11 03:48:08;;;;;;;22.83;16.63;;;;;;;;;;5030827;28;20024;-86
2023/12/11 03:50:34;;;;;;;27.23;19.00;;;;;;;;;;5012181;28;20039;-86
2023/12/11 03:52:59;;;;;;;28.77;18.20;;;;;;;;;;5032779;28;20434;-86
2023/12/11 03:55:25;;;;;;;35.45;20.80;;;;;;;;;;5030448;28;20071;-86
2023/12/11 03:57:50;;;;;;;29.55;17.77;;;;;;;;;;5010756;28;20429;-86
2023/12/11 04:00:15;;;;;;;30.05;19.25;;;;;;;;;;5011822;28;20056;-86
2023/12/11 04:02:41;;;;;;;26.63;18.67;;;;;;;;;;5012752;28;20688;-86
2023/12/11 04:05:06;;;;;;;26.17;17.98;;;;;;;;;;5030488;28;20443;-87
2023/12/11 04:07:31;;;;;;;23.58;16.92;;;;;;;;;;5011909;28;20483;-87
2023/12/11 04:09:57;;;;;;;23.15;15.32;;;;;;;;;;5008828;28;20103;-86
2023/12/11 04:12:22;;;;;;;24.73;14.50;;;;;;;;;;5015241;28;20030;-86
2023/12/11 04:14:47;;;;;;;24.33;17.05;;;;;;;;;;5008609;28;20531;-87
2023/12/11 04:17:13;;;;;;;24.35;17.20;;;;;;;;;;4992585;28;20056;-87
2023/12/11 04:19:38;;;;;;;18.15;13.32;;;;;;;;;;4996229;28;20021;-87
2023/12/11 04:22:04;;;;;;;20.33;14.57;;;;;;;;;;5012280;28;20116;-87
2023/12/11 04:24:29;;;;;;;22.17;13.80;;;;;;;;;;5011503;28;20036;-87
2023/12/11 04:26:54;;;;;;;23.70;14.80;;;;;;;;;;5011908;28;20027;-87
2023/12/11 04:29:20;;;;;;;19.85;14.70;;;;;;;;;;5029463;28;20030;-87
2023/12/11 04:31:45;;;;;;;19.10;14.45;;;;;;;;;;5027082;28;20502;-87
2023/12/11 04:34:10;;;;;;;34.10;20.23;;;;;;;;;;5011323;28;20483;-86
2023/12/11 04:36:35;;;;;;;36.97;22.77;;;;;;;;;;5014414;28;20040;-87
2023/12/11 04:39:01;;;;;;;31.60;21.77;;;;;;;;;;5029321;28;20018;-87
2023/12/11 04:41:26;;;;;;;34.03;21.95;;;;;;;;;;5011255;28;20470;-87
2023/12/11 04:43:52;;;;;;;34.22;21.98;;;;;;;;;;5011545;28;20467;-87
2023/12/11 04:46:17;;;;;;;28.95;19.98;;;;;;;;;;5018540;28;20090;-87
2023/12/11 04:48:42;;;;;;;28.15;20.35;;;;;;;;;;5011348;28;20117;-87
2023/12/11 04:51:08;;;;;;;36.00;22.95;;;;;;;;;;5008175;28;20025;-87
2023/12/11 04:53:33;;;;;;;38.13;25.83;;;;;;;;;;5011393;28;20025;-87
2023/12/11 04:55:59;;;;;;;38.10;25.15;;;;;;;;;;5011212;28;20037;-87
2023/12/11 04:58:24;;;;;;;43.08;26.75;;;;;;;;;;5010386;28;20033;-87
2023/12/11 05:00:49;;;;;;;35.28;23.65;;;;;;;;;;5011066;28;20379;-87
2023/12/11 05:03:15;;;;;;;39.95;24.55;;;;;;;;;;5029468;28;20022;-87
2023/12/11 05:05:40;;;;;;;43.75;27.38;;;;;;;;;;5010948;28;20048;-87
2023/12/11 05:08:06;;;;;;;39.15;24.25;;;;;;;;;;5011127;28;20112;-87
2023/12/11 05:10:32;;;;;;;44.83;26.50;;;;;;;;;;5011406;28;20029;-87
2023/12/11 05:12:58;;;;;;;40.78;23.95;;;;;;;;;;5010933;28;20025;-87
2023/12/11 05:15:23;;;;;;;32.75;21.58;;;;;;;;;;5029282;28;20076;-87
2023/12/11 05:17:48;;;;;;;37.08;23.33;;;;;;;;;;5018175;28;20040;-87
2023/12/11 05:20:16;;;;;;;42.10;24.77;;;;;;;;;;5011123;28;20055;-87
2023/12/11 05:22:41;;;;;;;43.15;24.67;;;;;;;;;;5028814;28;20037;-87
2023/12/11 05:25:06;;;;;;;32.50;22.17;;;;;;;;;;5028037;28;20021;-87
2023/12/11 05:27:33;;;;;;;35.28;22.42;;;;;;;;;;5028532;28;20069;-87
2023/12/11 05:29:58;;;;;;;38.50;23.40;;;;;;;;;;5027960;28;20036;-88
2023/12/11 05:32:23;;;;;;;45.65;25.00;;;;;;;;;;5011332;28;20033;-87
2023/12/11 05:34:49;;;;;;;55.97;37.20;;;;;;;;;;5010339;28;20022;-87
2023/12/11 05:37:14;;;;;;;37.38;26.75;;;;;;;;;;5028429;28;20403;-87
2023/12/11 05:39:40;;;;;;;136.05;71.47;;;;;;;;;;5010270;28;20546;-87
2023/12/11 05:42:05;;;;;;;84.72;43.30;;;;;;;;;;5010820;28;20032;-87
2023/12/11 05:44:30;;;;;;;54.22;34.70;;;;;;;;;;5027356;28;20029;-87
2023/12/11 05:46:56;;;;;;;55.10;34.72;;;;;;;;;;5014769;28;20249;-87
2023/12/11 05:49:21;;;;;;;79.90;45.58;;;;;;;;;;5027578;28;20025;-87
2023/12/11 05:51:46;;;;;;;59.38;35.63;;;;;;;;;;5018104;28;20028;-87
2023/12/11 05:54:12;;;;;;;54.83;34.45;;;;;;;;;;5002355;28;20045;-88
2023/12/11 05:56:37;;;;;;;71.43;44.03;;;;;;;;;;5027378;28;20028;-87
2023/12/11 05:59:02;;;;;;;64.38;43.08;;;;;;;;;;5017550;28;20022;-88
2023/12/11 06:01:29;;;;;;;63.25;41.85;;;;;;;;;;5026820;28;20063;-88
2023/12/11 06:03:54;;;;;;;118.72;64.90;;;;;;;;;;5017957;28;20387;-88
2023/12/11 06:06:21;;;;;;;110.68;62.05;;;;;;;;;;5017582;28;20025;-87
2023/12/11 06:08:46;;;;;;;158.57;83.68;;;;;;;;;;5015384;28;20434;-86
2023/12/11 06:11:12;;;;;;;168.65;104.03;;;;;;;;;;5014225;28;20030;-87
2023/12/11 06:13:37;;;;;;;102.68;65.05;;;;;;;;;;5012994;28;20071;-86
2023/12/11 06:16:02;;;;;;;73.30;42.17;;;;;;;;;;5012431;28;20047;-88
2023/12/11 06:18:28;;;;;;;66.88;39.38;;;;;;;;;;5026150;28;20017;-88
2023/12/11 06:20:53;;;;;;;72.85;41.33;;;;;;;;;;5035889;28;20076;-88
2023/12/11 06:23:18;;;;;;;72.32;41.95;;;;;;;;;;5027572;28;20041;-87
2023/12/11 06:25:44;;;;;;;81.88;44.15;;;;;;;;;;5013963;28;20036;-87
2023/12/11 06:28:09;;;;;;;71.68;40.92;;;;;;;;;;4989977;28;20052;-88
2023/12/11 06:30:35;;;;;;;52.70;33.42;;;;;;;;;;5023846;28;20029;-87
2023/12/11 06:33:00;;;;;;;49.72;32.08;;;;;;;;;;5009437;28;20033;-86
2023/12/11 06:35:25;;;;;;;46.42;28.10;;;;;;;;;;5021200;28;20029;-87
2023/12/11 06:37:51;;;;;;;51.13;31.60;;;;;;;;;;5009863;28;20394;-84
2023/12/11 06:40:17;;;;;;;76.85;40.58;;;;;;;;;;5016297;28;20483;-86
2023/12/11 06:42:42;;;;;;;62.25;37.58;;;;;;;;;;5009201;28;20063;-85
2023/12/11 06:45:08;;;;;;;71.53;41.55;;;;;;;;;;5027339;28;20377;-86
2023/12/11 06:47:34;;;;;;;65.38;39.75;;;;;;;;;;5009373;28;20467;-86
2023/12/11 06:49:59;;;;;;;60.75;34.58;;;;;;;;;;5014611;28;20598;-86
2023/12/11 06:52:26;;;;;;;60.67;35.67;;;;;;;;;;5027265;28;20025;-86
2023/12/11 06:54:51;;;;;;;77.30;37.95;;;;;;;;;;5023788;28;20411;-87
2023/12/11 06:57:16;;;;;;;87.13;48.38;;;;;;;;;;5008560;28;20029;-86
2023/12/11 06:59:42;;;;;;;188.38;89.57;;;;;;;;;;5002187;28;20021;-86
2023/12/11 07:02:07;;;;;;;116.43;69.85;;;;;;;;;;5009655;28;20099;-86
2023/12/11 07:04:32;;;;;;;80.85;49.35;;;;;;;;;;5009201;28;20443;-86
2023/12/11 07:06:58;;;;;;;109.43;67.28;;;;;;;;;;5027099;28;20037;-85
2023/12/11 07:09:23;;;;;;;90.30;55.25;;;;;;;;;;5010741;28;20026;-85
2023/12/11 07:11:48;;;;;;;73.45;47.60;;;;;;;;;;5007995;28;20025;-85
2023/12/11 07:14:14;;;;;;;91.45;60.85;;;;;;;;;;5009012;28;20056;-85
2023/12/11 07:16:39;;;;;;;471.20;257.65;;;;;;;;;;5026469;28;20364;-85
2023/12/11 07:19:04;;;;;;;205.32;118.82;;;;;;;;;;5008531;28;20022;-84
2023/12/11 07:21:30;;;;;;;80.30;51.13;;;;;;;;;;4992608;28;20034;-84
2023/12/11 07:23:55;;;;;;;232.02;119.50;;;;;;;;;;5009016;28;20025;-85
2023/12/11 07:26:20;;;;;;;415.65;212.73;;;;;;;;;;5008434;28;20307;-84
2023/12/11 07:28:46;;;;;;;440.98;227.85;;;;;;;;;;5026683;28;20581;-84
2023/12/11 07:31:11;;;;;;;598.10;298.33;;;;;;;;;;5011991;28;20033;-85
2023/12/11 07:33:37;;;;;;;112.53;66.95;;;;;;;;;;5026846;28;20030;-85
2023/12/11 07:36:02;;;;;;;80.32;53.08;;;;;;;;;;5010491;28;20033;-85
2023/12/11 07:38:28;;;;;;;130.35;81.82;;;;;;;;;;5029748;28;20030;-84
2023/12/11 07:40:55;;;;;;;96.15;59.03;;;;;;;;;;4996785;28;20060;-84
2023/12/11 07:43:20;;;;;;;140.65;83.85;;;;;;;;;;5015650;28;20013;-84
2023/12/11 07:45:45;;;;;;;216.85;114.20;;;;;;;;;;5009023;28;20368;-84
2023/12/11 07:48:11;;;;;;;113.80;66.10;;;;;;;;;;5008871;28;20041;-86
2023/12/11 07:50:36;;;;;;;81.88;41.15;;;;;;;;;;5009459;28;20068;-86
2023/12/11 07:53:01;;;;;;;121.28;72.10;;;;;;;;;;5027379;28;20030;-86
2023/12/11 07:55:28;;;;;;;69.25;43.92;;;;;;;;;;5016700;28;20086;-86
2023/12/11 07:57:53;;;;;;;58.67;35.17;;;;;;;;;;5008525;28;20025;-86
2023/12/11 08:00:19;;;;;;;58.30;36.38;;;;;;;;;;5017315;28;20032;-86
2023/12/11 08:02:44;;;;;;;49.83;32.50;;;;;;;;;;5002830;28;20247;-86
2023/12/11 08:05:09;;;;;;;72.70;41.47;;;;;;;;;;5009232;28;20071;-86
2023/12/11 08:07:36;;;;;;;58.67;41.90;;;;;;;;;;5026216;28;20413;-86
2023/12/11 08:10:02;;;;;;;47.28;34.83;;;;;;;;;;5026826;28;20030;-86
2023/12/11 08:12:28;;;;;;;37.83;24.30;;;;;;;;;;5028836;28;20018;-86
2023/12/11 08:14:54;;;;;;;37.33;24.05;;;;;;;;;;5012972;28;20037;-86
2023/12/11 08:17:19;;;;;;;32.08;18.10;;;;;;;;;;5015071;28;20388;-86
2023/12/11 08:19:44;;;;;;;39.80;20.80;;;;;;;;;;5010720;28;20026;-86
2023/12/11 08:22:10;;;;;;;35.05;19.90;;;;;;;;;;5010212;28;20625;-85
2023/12/11 08:24:35;;;;;;;32.08;19.50;;;;;;;;;;5028346;28;20490;-86
2023/12/11 08:27:00;;;;;;;34.35;20.52;;;;;;;;;;5011379;28;20028;-86
2023/12/11 08:29:26;;;;;;;27.02;17.70;;;;;;;;;;5028464;28;20033;-86
2023/12/11 08:31:52;;;;;;;34.08;19.92;;;;;;;;;;5029494;28;20437;-86
2023/12/11 08:34:18;;;;;;;35.95;19.55;;;;;;;;;;5010424;28;20116;-86
2023/12/11 08:36:44;;;;;;;52.28;25.60;;;;;;;;;;5027647;28;20029;-87
2023/12/11 08:39:09;;;;;;;33.22;17.40;;;;;;;;;;5010283;28;20083;-87
2023/12/11 08:41:36;;;;;;;30.80;17.15;;;;;;;;;;5010513;28;20395;-87
2023/12/11 08:44:01;;;;;;;22.23;15.30;;;;;;;;;;5026784;28;20561;-86
2023/12/11 08:46:27;;;;;;;36.08;20.90;;;;;;;;;;5009545;28;20029;-85
2023/12/11 08:48:52;;;;;;;27.92;16.73;;;;;;;;;;5029622;28;20514;-84
2023/12/11 08:51:18;;;;;;;22.13;13.20;;;;;;;;;;5028212;28;20071;-86
2023/12/11 08:53:43;;;;;;;24.83;14.30;;;;;;;;;;5007768;28;20059;-85
2023/12/11 08:56:09;;;;;;;24.48;16.88;;;;;;;;;;5010888;28;20020;-84
2023/12/11 08:58:34;;;;;;;20.38;12.90;;;;;;;;;;5025403;28;20060;-83
2023/12/11 09:00:59;;;;;;;25.60;15.38;;;;;;;;;;5027475;28;20420;-84
2023/12/11 09:03:25;;;;;;;24.60;15.48;;;;;;;;;;5028292;28;20064;-84
2023/12/11 09:05:50;;;;;;;20.90;13.55;;;;;;;;;;5010386;28;20025;-85
2023/12/11 09:08:16;;;;;;;23.80;15.63;;;;;;;;;;5023430;28;20073;-85
2023/12/11 09:10:41;;;;;;;24.52;15.35;;;;;;;;;;5010200;28;20029;-84
2023/12/11 09:13:07;;;;;;;23.50;15.55;;;;;;;;;;5027867;28;20017;-85
2023/12/11 09:15:32;;;;;;;25.92;15.50;;;;;;;;;;5009145;28;20021;-85
2023/12/11 09:17:57;;;;;;;27.25;16.48;;;;;;;;;;5019867;28;20075;-84
2023/12/11 09:20:23;;;;;;;23.63;14.43;;;;;;;;;;5033382;28;20018;-84
2023/12/11 09:22:48;;;;;;;34.08;18.42;;;;;;;;;;5009938;28;20032;-84
2023/12/11 09:25:13;;;;;;;35.92;18.67;;;;;;;;;;5027921;28;20021;-84
2023/12/11 09:27:39;;;;;;;27.20;16.55;;;;;;;;;;5027621;28;20045;-85
2023/12/11 09:30:10;;;;;;;25.00;14.80;;;;;;;;;;5027296;28;20551;-85
2023/12/11 09:32:37;;;;;;;20.95;12.05;;;;;;;;;;5028522;28;20095;-85
2023/12/11 09:35:02;;;;;;;19.63;13.07;;;;;;;;;;5027821;28;20383;-84
2023/12/11 09:37:28;;;;;;;21.25;14.73;;;;;;;;;;5007399;28;20542;-84
2023/12/11 09:39:53;;;;;;;19.83;13.85;;;;;;;;;;5007420;28;20043;-85
2023/12/11 09:42:18;;;;;;;22.52;15.20;;;;;;;;;;5010274;28;20366;-84
2023/12/11 09:44:46;;;;;;;19.48;15.00;;;;;;;;;;5024832;28;20679;-84
2023/12/11 09:47:11;;;;;;;15.60;11.50;;;;;;;;;;5008358;28;20030;-85
2023/12/11 09:49:37;;;;;;;13.60;9.63;;;;;;;;;;5010302;28;20116;-84
2023/12/11 09:52:03;;;;;;;11.35;8.15;;;;;;;;;;5020573;28;20029;-84
2023/12/11 09:54:28;;;;;;;18.05;12.70;;;;;;;;;;5011685;28;20020;-85
2023/12/11 09:56:54;;;;;;;18.95;12.20;;;;;;;;;;5013778;28;20075;-85
2023/12/11 09:59:20;;;;;;;20.38;13.07;;;;;;;;;;5022677;28;20017;-84
2023/12/11 10:01:47;;;;;;;17.08;11.52;;;;;;;;;;5024095;28;20060;-84
2023/12/11 10:04:12;;;;;;;15.40;8.57;;;;;;;;;;5013321;28;20092;-85
2023/12/11 10:06:37;;;;;;;14.43;10.20;;;;;;;;;;5022997;28;20514;-85
2023/12/11 10:09:04;;;;;;;12.70;8.38;;;;;;;;;;5018157;28;20041;-84
2023/12/11 10:11:29;;;;;;;15.38;9.55;;;;;;;;;;5014071;28;20020;-84
2023/12/11 10:14:09;;;;;;;12.88;10.07;;;;;;;;;;5020961;28;20021;-84
2023/12/11 10:16:36;;;;;;;8.35;5.40;;;;;;;;;;5020322;28;20127;-85
2023/12/11 10:19:03;;;;;;;13.43;6.85;;;;;;;;;;5013052;28;20049;-85
2023/12/11 10:21:41;;;;;;;17.92;12.07;;;;;;;;;;5023283;28;20032;-85
2023/12/11 10:24:07;;;;;;;13.43;8.02;;;;;;;;;;5025247;28;20558;-85
2023/12/11 10:26:35;;;;;;;21.83;13.10;;;;;;;;;;5007281;28;20028;-85
2023/12/11 10:29:16;;;;;;;17.38;11.00;;;;;;;;;;5005502;28;20033;-85
2023/12/11 10:31:41;;;;;;;33.33;20.23;;;;;;;;;;5027036;28;20465;-85
2023/12/11 10:34:06;;;;;;;22.73;13.63;;;;;;;;;;5026196;28;20104;-84
2023/12/11 10:36:32;;;;;;;35.30;21.90;;;;;;;;;;5008806;28;20057;-85
2023/12/11 10:39:08;;;;;;;36.35;25.83;;;;;;;;;;5008104;28;20043;-85
2023/12/11 10:41:33;;;;;;;25.00;16.48;;;;;;;;;;5026342;28;20022;-85
2023/12/11 10:43:59;;;;;;;31.73;19.60;;;;;;;;;;5018293;28;20025;-85
2023/12/11 10:46:24;;;;;;;19.67;13.52;;;;;;;;;;5026562;28;20029;-85
2023/12/11 10:48:50;;;;;;;19.40;12.23;;;;;;;;;;5026690;28;20022;-85
2023/12/11 10:51:15;;;;;;;20.05;12.95;;;;;;;;;;5009556;28;20084;-85
2023/12/11 10:53:43;;;;;;;23.67;15.55;;;;;;;;;;5021273;28;20018;-85
2023/12/11 10:56:09;;;;;;;17.45;11.75;;;;;;;;;;5026335;28;20037;-85
2023/12/11 10:58:34;;;;;;;23.38;13.18;;;;;;;;;;5026051;28;20053;-84
2023/12/11 11:01:01;;;;;;;17.17;11.70;;;;;;;;;;5025728;28;20041;-85
2023/12/11 11:03:27;;;;;;;21.02;11.38;;;;;;;;;;4996736;28;20049;-85
2023/12/11 11:05:52;;;;;;;16.27;9.95;;;;;;;;;;5025012;28;20439;-85
2023/12/11 11:08:19;;;;;;;12.25;8.68;;;;;;;;;;5025272;28;20021;-85
2023/12/11 11:10:50;;;;;;;15.00;9.57;;;;;;;;;;5012038;28;20022;-85
2023/12/11 11:13:23;;;;;;;22.13;12.23;;;;;;;;;;5016637;28;20025;-85
2023/12/11 11:15:55;;;;;;;16.25;9.90;;;;;;;;;;5028124;28;20026;-85
2023/12/11 11:18:21;;;;;;;13.07;7.78;;;;;;;;;;5012070;28;20017;-85
2023/12/11 11:21:06;;;;;;;15.23;8.85;;;;;;;;;;5007966;28;20032;-85
2023/12/11 11:23:41;;;;;;;24.73;15.85;;;;;;;;;;5023983;28;20017;-85
2023/12/11 11:26:27;;;;;;;17.58;11.05;;;;;;;;;;5019683;28;20025;-85
2023/12/11 11:28:52;;;;;;;34.35;21.92;;;;;;;;;;5015765;28;20042;-85
2023/12/11 11:31:17;;;;;;;23.73;14.32;;;;;;;;;;5035036;28;20025;-86
2023/12/11 11:33:44;;;;;;;19.52;11.77;;;;;;;;;;5017640;28;20053;-85
2023/12/11 11:36:09;;;;;;;26.58;16.77;;;;;;;;;;5017275;28;20024;-85
2023/12/11 11:38:50;;;;;;;38.05;23.65;;;;;;;;;;5012643;28;20499;-85
2023/12/11 11:41:23;;;;;;;49.28;26.40;;;;;;;;;;5016844;28;20038;-86
2023/12/11 11:44:14;;;;;;;17.20;10.98;;;;;;;;;;5024297;28;20542;-85
2023/12/11 11:47:08;;;;;;;30.15;17.17;;;;;;;;;;4998720;28;20122;-86
2023/12/11 11:49:35;;;;;;;21.55;14.20;;;;;;;;;;4941998;28;20492;-85
2023/12/11 11:52:07;;;;;;;22.17;14.63;;;;;;;;;;4932499;29;20030;-86
2023/12/11 11:54:36;;;;;;;32.90;20.35;;;;;;;;;;4928747;29;20142;-86
2023/12/11 11:57:02;;;;;;;30.63;19.67;;;;;;;;;;4949009;29;20524;-85
2023/12/11 11:59:28;;;;;;;18.85;13.40;;;;;;;;;;4932616;29;20043;-85
2023/12/11 12:01:55;;;;;;;27.08;15.20;;;;;;;;;;4932753;29;20019;-85
2023/12/11 12:04:30;;;;;;;32.05;20.17;;;;;;;;;;4948602;29;20035;-85
2023/12/11 12:06:56;;;;;;;48.85;28.90;;;;;;;;;;4931924;29;20186;-86
2023/12/11 12:09:22;;;;;;;20.90;12.13;;;;;;;;;;4946759;29;20518;-85
2023/12/11 12:11:47;;;;;;;12.45;8.77;;;;;;;;;;4946378;29;20027;-86
2023/12/11 12:14:13;;;;;;;17.42;10.00;;;;;;;;;;4932418;29;20039;-86
2023/12/11 12:16:39;;;;;;;19.30;11.88;;;;;;;;;;4932539;29;20031;-86
2023/12/11 12:19:05;;;;;;;18.85;11.77;;;;;;;;;;4948828;29;20113;-86
2023/12/11 12:21:32;;;;;;;8.20;5.95;;;;;;;;;;4940188;28;20046;-87
2023/12/11 12:24:01;;;;;;;12.20;8.65;;;;;;;;;;4956657;28;20031;-86
2023/12/11 12:26:26;;;;;;;13.00;9.80;;;;;;;;;;4986411;28;20183;-86
2023/12/11 12:28:51;;;;;;;15.15;9.60;;;;;;;;;;5011011;28;20554;-89
2023/12/11 12:31:17;;;;;;;20.02;11.75;;;;;;;;;;5011702;28;20029;-89
2023/12/11 12:33:42;;;;;;;19.38;14.60;;;;;;;;;;5028853;28;20021;-88
2023/12/11 12:36:07;;;;;;;15.52;10.15;;;;;;;;;;5029018;28;20053;-86
2023/12/11 12:38:33;;;;;;;14.95;9.77;;;;;;;;;;5011245;28;20021;-88
2023/12/11 12:40:58;;;;;;;16.55;10.77;;;;;;;;;;5029157;28;20014;-88
2023/12/11 12:43:24;;;;;;;13.30;8.57;;;;;;;;;;5011446;28;20021;-87
2023/12/11 12:45:49;;;;;;;21.60;14.77;;;;;;;;;;5028371;28;20021;-85
2023/12/11 12:48:15;;;;;;;12.27;9.40;;;;;;;;;;5028394;28;20025;-85
2023/12/11 12:50:40;;;;;;;13.45;8.48;;;;;;;;;;5016523;28;20498;-85
2023/12/11 12:53:13;;;;;;;13.18;9.43;;;;;;;;;;5026977;28;20109;-84
2023/12/11 12:55:41;;;;;;;16.80;11.02;;;;;;;;;;5016531;28;20820;-85
2023/12/11 12:58:07;;;;;;;15.25;11.88;;;;;;;;;;5012948;28;20715;-85
2023/12/11 13:00:36;;;;;;;15.75;10.93;;;;;;;;;;5019779;28;20029;-87
2023/12/11 13:03:03;;;;;;;26.73;17.77;;;;;;;;;;5018894;28;20010;-87
2023/12/11 13:05:41;;;;;;;14.40;10.45;;;;;;;;;;5028411;28;20021;-86
2023/12/11 13:08:08;;;;;;;16.35;10.77;;;;;;;;;;5026556;28;20722;-86
2023/12/11 13:10:33;;;;;;;16.75;11.60;;;;;;;;;;5035369;28;20026;-86
2023/12/11 13:12:58;;;;;;;19.27;15.90;;;;;;;;;;5028394;28;20076;-86
2023/12/11 13:15:24;;;;;;;21.48;15.35;;;;;;;;;;5018717;28;20021;-86
2023/12/11 13:17:53;;;;;;;26.90;23.08;;;;;;;;;;5017826;28;20479;-86
2023/12/11 13:20:19;;;;;;;25.85;21.17;;;;;;;;;;5021422;28;20048;-86
2023/12/11 13:22:45;;;;;;;29.90;23.70;;;;;;;;;;5034927;28;20018;-85
2023/12/11 13:25:10;;;;;;;35.58;25.77;;;;;;;;;;5019103;28;20442;-86
2023/12/11 13:27:35;;;;;;;19.65;13.98;;;;;;;;;;5030352;28;20120;-86
2023/12/11 13:30:02;;;;;;;19.92;16.02;;;;;;;;;;5037757;28;20033;-86
2023/12/11 13:32:28;;;;;;;15.90;13.43;;;;;;;;;;5019090;28;20531;-86
2023/12/11 13:34:53;;;;;;;30.23;22.65;;;;;;;;;;5037269;28;20108;-86
2023/12/11 13:37:19;;;;;;;44.45;31.83;;;;;;;;;;5038359;28;20124;-86
2023/12/11 13:39:44;;;;;;;34.58;24.67;;;;;;;;;;5035651;28;20108;-86
2023/12/11 13:42:10;;;;;;;36.58;26.77;;;;;;;;;;5010685;28;20101;-86
2023/12/11 13:44:35;;;;;;;38.13;26.35;;;;;;;;;;4993898;28;20488;-87
2023/12/11 13:47:01;;;;;;;20.02;12.98;;;;;;;;;;5009807;28;20025;-86
2023/12/11 13:49:26;;;;;;;17.58;12.40;;;;;;;;;;5027646;28;20582;-86
2023/12/11 13:51:51;;;;;;;22.98;13.68;;;;;;;;;;5010335;28;20027;-85
2023/12/11 13:54:17;;;;;;;148.68;58.25;;;;;;;;;;5027764;28;20474;-87
2023/12/11 13:56:42;;;;;;;184.43;109.80;;;;;;;;;;5009702;28;20078;-88
2023/12/11 13:59:08;;;;;;;13.27;10.95;;;;;;;;;;5009366;28;20388;-88
2023/12/11 14:01:33;;;;;;;31.30;20.90;;;;;;;;;;5007146;28;20068;-87
2023/12/11 14:03:58;;;;;;;21.35;17.55;;;;;;;;;;5009767;28;20466;-88
2023/12/11 14:06:23;;;;;;;29.48;21.80;;;;;;;;;;5027589;28;20030;-88
2023/12/11 14:08:49;;;;;;;21.10;13.70;;;;;;;;;;5010204;28;20029;-87